createdAt,value
2023-04-15T00:00:31.355Z,83.88
2023-04-15T00:02:32.960Z,84.60
2023-04-15T00:04:34.591Z,84.21
2023-04-15T00:06:37.476Z,82.53
2023-04-15T00:08:39.259Z,82.91
2023-04-15T00:10:40.748Z,82.41
2023-04-15T00:12:42.414Z,82.97
2023-04-15T00:14:44.919Z,84.63
2023-04-15T00:16:46.406Z,84.57
2023-04-15T00:18:47.799Z,82.99
2023-04-15T00:20:49.187Z,82.83
2023-04-15T00:22:50.641Z,84.73
2023-04-15T00:24:53.297Z,84.25
2023-04-15T00:26:54.716Z,84.51
2023-04-15T00:28:56.145Z,84.18
2023-04-15T00:30:57.743Z,82.25
2023-04-15T00:32:59.376Z,83.02
2023-04-15T00:35:00.986Z,81.48
2023-04-15T00:37:02.673Z,83.28
2023-04-15T00:39:05.304Z,84.51
2023-04-15T00:41:07.597Z,85.24
2023-04-15T00:43:08.986Z,84.93
2023-04-15T00:45:10.752Z,83.40
2023-04-15T00:47:12.313Z,83.58
2023-04-15T00:49:13.994Z,84.54
2023-04-15T00:51:16.050Z,84.17
2023-04-15T00:53:17.448Z,83.97
2023-04-15T00:55:19.322Z,83.06
2023-04-15T00:57:22.357Z,82.82
2023-04-15T00:59:24.100Z,83.91
2023-04-15T01:01:26.450Z,83.85
2023-04-15T01:03:29.491Z,82.97
2023-04-15T01:05:31.306Z,82.78
2023-04-15T01:07:32.706Z,83.53
2023-04-15T01:09:34.137Z,83.27
2023-04-15T01:11:35.712Z,83.33
2023-04-15T01:13:37.272Z,83.87
2023-04-15T01:15:39.062Z,83.72
2023-04-15T01:17:40.535Z,84.15
2023-04-15T01:19:42.264Z,84.36
2023-04-15T01:21:43.777Z,84.78
2023-04-15T01:23:47.677Z,85.07
2023-04-15T01:25:50.248Z,84.22
2023-04-15T01:27:51.633Z,84.77
2023-04-15T01:29:53.072Z,84.94
2023-04-15T01:31:56.014Z,84.64
2023-04-15T01:33:57.605Z,85.09
2023-04-15T01:35:59.163Z,85.35
2023-04-15T01:38:06.520Z,84.70
2023-04-15T01:40:08.578Z,84.52
2023-04-15T01:42:10.201Z,84.85
2023-04-15T01:44:11.655Z,85.27
2023-04-15T01:46:13.093Z,85.19
2023-04-15T01:48:14.535Z,85.43
2023-04-15T01:50:16.085Z,85.75
2023-04-15T01:52:17.529Z,84.96
2023-04-15T01:54:18.901Z,85.85
2023-04-15T01:56:20.298Z,86.20
2023-04-15T01:58:22.530Z,86.41
2023-04-15T02:00:24.004Z,85.74
2023-04-15T02:02:25.902Z,86.55
2023-04-15T02:04:27.934Z,86.14
2023-04-15T02:06:29.298Z,85.75
2023-04-15T02:08:30.864Z,86.54
2023-04-15T02:10:32.236Z,86.77
2023-04-15T02:12:33.815Z,86.92
2023-04-15T02:14:35.614Z,87.03
2023-04-15T02:16:37.127Z,86.07
2023-04-15T02:18:38.580Z,86.41
2023-04-15T02:20:40.026Z,86.63
2023-04-15T02:22:41.415Z,87.58
2023-04-15T02:24:42.794Z,86.29
2023-04-15T02:26:44.148Z,87.54
2023-04-15T02:28:46.787Z,87.45
2023-04-15T02:30:52.813Z,87.08
2023-04-15T02:32:54.737Z,86.75
2023-04-15T02:34:56.271Z,86.79
2023-04-15T02:36:57.811Z,86.24
2023-04-15T02:38:59.835Z,86.98
2023-04-15T02:41:01.569Z,87.18
2023-04-15T02:43:03.155Z,86.40
2023-04-15T02:45:05.925Z,87.57
2023-04-15T02:47:07.411Z,86.54
2023-04-15T02:49:08.862Z,87.34
2023-04-15T02:51:19.883Z,86.44
2023-04-15T02:53:21.433Z,86.63
2023-04-15T02:55:22.890Z,86.46
2023-04-15T02:57:24.364Z,86.21
2023-04-15T02:59:25.733Z,87.34
2023-04-15T03:01:27.254Z,86.37
2023-04-15T03:03:28.817Z,86.59
2023-04-15T03:05:30.530Z,86.79
2023-04-15T03:07:32.061Z,87.43
2023-04-15T03:09:33.539Z,86.11
2023-04-15T03:11:37.017Z,85.99
2023-04-15T03:13:39.518Z,87.14
2023-04-15T03:15:40.934Z,86.37
2023-04-15T03:17:42.480Z,85.92
2023-04-15T03:19:44.302Z,87.06
2023-04-15T03:21:45.741Z,86.09
2023-04-15T03:23:47.159Z,86.09
2023-04-15T03:25:48.610Z,86.77
2023-04-15T03:27:49.988Z,86.96
2023-04-15T03:29:51.724Z,86.71
2023-04-15T03:31:53.639Z,86.62
2023-04-15T03:33:55.034Z,86.83
2023-04-15T03:35:56.676Z,86.74
2023-04-15T03:37:58.128Z,86.54
2023-04-15T03:39:59.521Z,86.68
2023-04-15T03:42:01.820Z,86.48
2023-04-15T03:44:03.238Z,86.70
2023-04-15T03:46:04.943Z,86.97
2023-04-15T03:48:16.487Z,87.00
2023-04-15T03:50:19.445Z,86.51
2023-04-15T03:52:20.874Z,87.59
2023-04-15T03:54:22.274Z,87.30
2023-04-15T03:56:23.640Z,87.13
2023-04-15T03:58:25.059Z,86.69
2023-04-15T04:00:26.478Z,86.26
2023-04-15T04:02:28.306Z,86.25
2023-04-15T04:04:30.070Z,87.13
2023-04-15T04:06:31.600Z,87.61
2023-04-15T04:08:33.012Z,88.18
2023-04-15T04:10:34.684Z,87.66
2023-04-15T04:12:36.280Z,87.11
2023-04-15T04:14:37.683Z,87.36
2023-04-15T04:16:39.203Z,87.70
2023-04-15T04:18:40.837Z,87.57
2023-04-15T04:20:42.460Z,87.30
2023-04-15T04:22:43.913Z,87.32
2023-04-15T04:24:45.333Z,86.96
2023-04-15T04:26:46.801Z,87.64
2023-04-15T04:28:48.329Z,87.22
2023-04-15T04:30:49.798Z,87.28
2023-04-15T04:32:51.636Z,87.42
2023-04-15T04:34:53.169Z,86.87
2023-04-15T04:36:54.573Z,87.28
2023-04-15T04:38:56.156Z,87.77
2023-04-15T04:40:57.646Z,87.52
2023-04-15T04:42:59.105Z,87.41
2023-04-15T04:45:00.556Z,86.73
2023-04-15T04:47:01.950Z,86.99
2023-04-15T04:49:03.574Z,87.29
2023-04-15T04:51:05.512Z,87.49
2023-04-15T04:53:07.144Z,87.05
2023-04-15T04:55:08.794Z,87.19
2023-04-15T04:57:10.501Z,86.99
2023-04-15T04:59:11.883Z,87.52
2023-04-15T05:01:13.546Z,87.11
2023-04-15T05:03:15.245Z,87.21
2023-04-15T05:05:17.265Z,87.46
2023-04-15T05:07:20.776Z,87.18
2023-04-15T05:09:22.204Z,88.16
2023-04-15T05:11:23.613Z,87.54
2023-04-15T05:13:25.080Z,88.04
2023-04-15T05:15:26.517Z,88.23
2023-04-15T05:17:27.968Z,87.31
2023-04-15T05:19:29.358Z,87.79
2023-04-15T05:21:31.675Z,87.99
2023-04-15T05:23:33.506Z,87.52
2023-04-15T05:25:34.931Z,87.99
2023-04-15T05:27:36.734Z,87.74
2023-04-15T05:29:38.098Z,87.92
2023-04-15T05:31:39.598Z,87.14
2023-04-15T05:33:41.334Z,88.11
2023-04-15T05:35:42.769Z,87.30
2023-04-15T05:37:44.254Z,87.55
2023-04-15T05:39:45.619Z,88.62
2023-04-15T05:41:47.083Z,88.52
2023-04-15T05:43:48.498Z,88.70
2023-04-15T05:45:50.011Z,88.68
2023-04-15T05:47:53.959Z,87.72
2023-04-15T05:49:55.819Z,87.85
2023-04-15T05:51:57.176Z,87.29
2023-04-15T05:53:58.601Z,87.20
2023-04-15T05:56:00.088Z,87.43
2023-04-15T05:58:01.769Z,86.32
2023-04-15T06:00:05.283Z,86.61
2023-04-15T06:02:07.499Z,87.00
2023-04-15T06:04:09.730Z,85.96
2023-04-15T06:06:11.226Z,86.56
2023-04-15T06:08:12.577Z,87.32
2023-04-15T06:10:13.971Z,87.57
2023-04-15T06:12:15.783Z,88.05
2023-04-15T06:14:17.188Z,87.65
2023-04-15T06:16:18.615Z,87.38
2023-04-15T06:18:20.222Z,86.93
2023-04-15T06:20:21.716Z,86.53
2023-04-15T06:22:23.849Z,86.46
2023-04-15T06:24:25.234Z,85.94
2023-04-15T06:26:27.210Z,85.68
2023-04-15T06:28:28.612Z,85.38
2023-04-15T06:30:29.976Z,85.11
2023-04-15T06:32:32.424Z,84.19
2023-04-15T06:34:33.866Z,84.61
2023-04-15T06:36:35.315Z,84.70
2023-04-15T06:38:36.704Z,84.39
2023-04-15T06:40:38.133Z,84.39
2023-04-15T06:42:39.568Z,84.22
2023-04-15T06:44:41.061Z,84.27
2023-04-15T06:46:42.434Z,83.93
2023-04-15T06:48:44.368Z,84.80
2023-04-15T06:50:45.805Z,84.86
2023-04-15T06:52:47.620Z,84.20
2023-04-15T06:54:49.003Z,83.81
2023-04-15T06:56:51.523Z,84.32
2023-04-15T06:58:52.966Z,83.43
2023-04-15T07:00:54.571Z,84.38
2023-04-15T07:02:56.457Z,84.02
2023-04-15T07:04:57.961Z,84.50
2023-04-15T07:07:01.638Z,82.80
2023-04-15T07:09:04.632Z,84.82
2023-04-15T07:11:07.427Z,83.73
2023-04-15T07:13:08.899Z,84.29
2023-04-15T07:15:10.785Z,83.51
2023-04-15T07:17:12.283Z,83.91
2023-04-15T07:19:13.678Z,81.68
2023-04-15T07:21:15.195Z,82.19
2023-04-15T07:23:16.588Z,80.63
2023-04-15T07:25:18.945Z,82.05
2023-04-15T07:27:20.924Z,81.04
2023-04-15T07:29:22.431Z,81.13
2023-04-15T07:31:23.875Z,80.62
2023-04-15T07:33:25.328Z,80.75
2023-04-15T07:35:27.507Z,79.39
2023-04-15T07:37:29.600Z,80.01
2023-04-15T07:39:31.189Z,79.85
2023-04-15T07:41:32.606Z,79.94
2023-04-15T07:43:34.048Z,79.45
2023-04-15T07:45:35.637Z,79.14
2023-04-15T07:47:37.236Z,77.96
2023-04-15T07:49:38.741Z,78.38
2023-04-15T07:51:40.183Z,78.03
2023-04-15T07:53:42.466Z,77.50
2023-04-15T07:55:43.851Z,78.08
2023-04-15T07:57:45.334Z,78.12
2023-04-15T07:59:46.725Z,77.09
2023-04-15T08:01:48.358Z,77.20
2023-04-15T08:03:50.057Z,77.13
2023-04-15T08:05:51.559Z,76.81
2023-04-15T08:07:53.028Z,76.29
2023-04-15T08:09:54.663Z,76.53
2023-04-15T08:11:56.974Z,75.90
2023-04-15T08:13:58.435Z,76.49
2023-04-15T08:16:21.187Z,74.58
2023-04-15T08:18:22.667Z,74.56
2023-04-15T08:20:24.089Z,74.72
2023-04-15T08:22:25.645Z,74.95
2023-04-15T08:24:27.326Z,74.61
2023-04-15T08:26:28.870Z,74.72
2023-04-15T08:28:30.648Z,74.43
2023-04-15T08:30:32.033Z,73.73
2023-04-15T08:32:33.470Z,73.26
2023-04-15T08:34:35.192Z,73.53
2023-04-15T08:38:51.302Z,74.91
2023-04-15T08:40:52.798Z,74.30
2023-04-15T08:42:57.588Z,73.84
2023-04-15T08:45:01.133Z,74.73
2023-04-15T08:47:03.562Z,73.95
2023-04-15T08:49:05.670Z,73.13
2023-04-15T08:51:08.411Z,73.69
2023-04-15T08:53:11.632Z,72.70
2023-04-15T08:55:14.311Z,72.04
2023-04-15T08:57:16.195Z,71.78
2023-04-15T08:59:18.155Z,73.54
2023-04-15T09:01:20.096Z,73.28
2023-04-15T09:03:23.641Z,72.56
2023-04-15T09:05:25.228Z,72.58
2023-04-15T09:07:26.986Z,73.92
2023-04-15T09:09:29.034Z,72.97
2023-04-15T09:11:31.399Z,73.22
2023-04-15T09:13:32.970Z,72.47
2023-04-15T09:15:38.361Z,71.84
2023-04-15T09:17:44.218Z,72.47
2023-04-15T09:19:46.026Z,72.49
2023-04-15T09:21:48.041Z,72.74
2023-04-15T09:24:00.551Z,72.25
2023-04-15T09:26:02.814Z,72.61
2023-04-15T09:28:04.323Z,71.21
2023-04-15T09:30:08.868Z,72.22
2023-04-15T09:32:15.537Z,73.38
2023-04-15T09:34:17.914Z,72.80
2023-04-15T09:36:19.356Z,73.16
2023-04-15T09:38:20.805Z,72.96
2023-04-15T09:40:36.351Z,72.13
2023-04-15T09:42:53.706Z,73.70
2023-04-15T09:44:55.273Z,73.51
2023-04-15T09:46:56.695Z,73.06
2023-04-15T09:49:11.651Z,74.04
2023-04-15T09:51:13.261Z,74.16
2023-04-15T09:53:19.482Z,73.55
2023-04-15T09:55:21.089Z,74.25
2023-04-15T09:57:23.646Z,73.31
2023-04-15T09:59:25.087Z,74.20
2023-04-15T10:01:26.996Z,73.95
2023-04-15T10:03:31.137Z,73.86
2023-04-15T10:05:33.471Z,73.58
2023-04-15T10:07:35.227Z,73.31
2023-04-15T10:09:38.188Z,73.22
2023-04-15T10:11:39.994Z,73.25
2023-04-15T10:13:41.632Z,73.02
2023-04-15T10:15:46.037Z,74.89
2023-04-15T10:17:50.386Z,75.58
2023-04-15T10:19:54.552Z,75.18
2023-04-15T10:21:56.202Z,75.01
2023-04-15T10:23:58.747Z,74.93
2023-04-15T10:26:01.092Z,74.27
2023-04-15T10:28:03.387Z,74.24
2023-04-15T10:30:06.032Z,74.72
2023-04-15T10:32:08.047Z,75.33
2023-04-15T10:34:10.786Z,76.00
2023-04-15T10:36:13.104Z,75.08
2023-04-15T10:38:46.806Z,75.94
2023-04-15T10:40:50.624Z,74.93
2023-04-15T10:42:52.070Z,74.89
2023-04-15T10:44:57.048Z,75.49
2023-04-15T10:46:58.673Z,75.68
2023-04-15T10:49:08.071Z,75.40
2023-04-15T10:51:09.489Z,75.74
2023-04-15T10:53:11.340Z,76.17
2023-04-15T10:55:20.250Z,75.59
2023-04-15T10:57:23.662Z,76.41
2023-04-15T10:59:25.272Z,76.75
2023-04-15T11:01:55.022Z,77.33
2023-04-15T11:03:56.951Z,75.20
2023-04-15T11:05:58.571Z,76.16
2023-04-15T11:08:00.050Z,76.49
2023-04-15T11:10:01.909Z,76.48
2023-04-15T11:12:10.532Z,76.81
2023-04-15T11:14:16.200Z,77.51
2023-04-15T11:16:18.070Z,78.35
2023-04-15T11:18:28.439Z,78.01
2023-04-15T11:20:29.929Z,79.16
2023-04-15T11:22:31.403Z,79.23
2023-04-15T11:24:32.857Z,79.82
2023-04-15T11:26:34.311Z,80.37
2023-04-15T11:28:38.765Z,79.91
2023-04-15T11:30:42.446Z,79.88
2023-04-15T11:32:44.054Z,80.63
2023-04-15T11:34:46.601Z,79.89
2023-04-15T11:36:48.874Z,80.32
2023-04-15T11:38:50.467Z,80.30
2023-04-15T11:40:52.668Z,80.75
2023-04-15T11:43:31.674Z,80.30
2023-04-15T11:45:33.393Z,80.66
2023-04-15T11:47:36.925Z,80.75
2023-04-15T11:49:43.003Z,82.25
2023-04-15T11:51:45.261Z,81.98
2023-04-15T11:53:48.617Z,81.06
2023-04-15T11:55:52.757Z,81.97
2023-04-15T11:58:21.295Z,81.11
2023-04-15T12:00:23.134Z,81.26
2023-04-15T12:02:32.089Z,80.81
2023-04-15T12:04:33.870Z,80.73
2023-04-15T12:06:36.831Z,82.09
2023-04-15T12:09:00.394Z,82.87
2023-04-15T12:11:01.919Z,81.31
2023-04-15T12:13:07.046Z,81.91
2023-04-15T12:15:09.862Z,83.31
2023-04-15T12:17:13.116Z,82.10
2023-04-15T12:19:16.301Z,83.03
2023-04-15T12:21:22.620Z,82.46
2023-04-15T12:23:24.042Z,81.57
2023-04-15T12:25:35.318Z,82.09
2023-04-15T12:27:36.777Z,82.07
2023-04-15T12:29:39.888Z,81.82
2023-04-15T12:31:52.069Z,82.70
2023-04-15T12:34:00.951Z,82.76
2023-04-15T12:36:03.143Z,83.59
2023-04-15T12:38:04.569Z,81.78
2023-04-15T12:40:08.543Z,81.87
2023-04-15T12:42:10.791Z,81.83
2023-04-15T12:44:12.720Z,82.22
2023-04-15T12:46:14.209Z,83.05
2023-04-15T12:48:15.731Z,82.91
2023-04-15T12:50:18.816Z,82.61
2023-04-15T12:52:20.286Z,82.24
2023-04-15T12:54:21.961Z,82.96
2023-04-15T12:56:23.904Z,81.92
2023-04-15T12:58:25.388Z,81.60
2023-04-15T13:00:26.793Z,83.53
2023-04-15T13:02:29.194Z,83.14
2023-04-15T13:04:31.630Z,82.70
2023-04-15T13:06:33.404Z,84.09
2023-04-15T13:08:36.780Z,82.78
2023-04-15T13:10:40.414Z,83.57
2023-04-15T13:12:41.815Z,83.10
2023-04-15T13:14:43.317Z,84.76
2023-04-15T13:16:44.725Z,83.43
2023-04-15T13:18:46.177Z,84.51
2023-04-15T13:20:47.577Z,83.94
2023-04-15T13:22:49.079Z,84.17
2023-04-15T13:24:51.404Z,83.81
2023-04-15T13:26:53.433Z,84.87
2023-04-15T13:28:54.873Z,83.52
2023-04-15T13:30:56.315Z,83.46
2023-04-15T13:32:57.922Z,84.20
2023-04-15T13:34:59.668Z,83.86
2023-04-15T13:37:09.427Z,84.72
2023-04-15T13:39:11.042Z,85.47
2023-04-15T13:41:12.424Z,85.12
2023-04-15T13:43:13.898Z,84.77
2023-04-15T13:45:16.170Z,85.89
2023-04-15T13:47:19.484Z,84.11
2023-04-15T13:49:21.013Z,85.16
2023-04-15T13:51:22.751Z,84.91
2023-04-15T13:53:38.020Z,84.37
2023-04-15T13:55:42.552Z,83.95
2023-04-15T13:57:44.221Z,85.20
2023-04-15T13:59:46.335Z,86.00
2023-04-15T14:01:47.768Z,84.48
2023-04-15T14:03:49.280Z,86.24
2023-04-15T14:05:55.913Z,85.70
2023-04-15T14:07:57.578Z,84.30
2023-04-15T14:09:59.045Z,84.63
2023-04-15T14:12:01.404Z,84.90
2023-04-15T14:14:02.999Z,84.63
2023-04-15T14:16:05.207Z,84.86
2023-04-15T14:18:07.579Z,85.23
2023-04-15T14:20:09.626Z,85.31
2023-04-15T14:22:11.193Z,85.30
2023-04-15T14:24:12.583Z,85.46
2023-04-15T14:26:14.611Z,85.40
2023-04-15T14:28:16.157Z,85.52
2023-04-15T14:30:17.604Z,87.16
2023-04-15T14:32:19.037Z,86.86
2023-04-15T14:34:22.235Z,86.82
2023-04-15T14:36:23.657Z,86.39
2023-04-15T14:38:25.051Z,87.24
2023-04-15T14:40:26.548Z,86.62
2023-04-15T14:42:28.028Z,85.86
2023-04-15T14:46:30.977Z,85.12
2023-04-15T14:48:32.561Z,86.21
2023-04-15T14:50:33.987Z,85.07
2023-04-15T14:52:38.817Z,85.61
2023-04-15T14:54:40.225Z,85.53
2023-04-15T14:56:41.661Z,85.44
2023-04-15T14:58:43.075Z,84.98
2023-04-15T15:00:44.747Z,85.89
2023-04-15T15:02:47.487Z,84.93
2023-04-15T15:04:49.063Z,86.92
2023-04-15T15:06:50.874Z,87.48
2023-04-15T15:08:52.332Z,86.50
2023-04-15T15:10:53.713Z,85.62
2023-04-15T15:12:55.180Z,86.50
2023-04-15T15:14:56.630Z,87.01
2023-04-15T15:16:58.211Z,86.67
2023-04-15T15:19:00.016Z,86.92
2023-04-15T15:21:03.858Z,87.56
2023-04-15T15:23:05.393Z,87.73
2023-04-15T15:25:06.892Z,87.89
2023-04-15T15:27:08.438Z,87.88
2023-04-15T15:29:09.937Z,87.88
2023-04-15T15:31:11.813Z,88.68
2023-04-15T15:33:13.275Z,88.60
2023-04-15T15:35:14.746Z,88.94
2023-04-15T15:37:16.151Z,88.64
2023-04-15T15:39:17.577Z,88.69
2023-04-15T15:41:19.106Z,89.39
2023-04-15T15:43:20.655Z,89.40
2023-04-15T15:45:22.306Z,88.04
2023-04-15T15:47:23.828Z,89.03
2023-04-15T15:49:25.864Z,90.08
2023-04-15T15:51:27.661Z,89.68
2023-04-15T15:53:29.081Z,89.14
2023-04-15T15:55:30.637Z,90.19
2023-04-15T15:57:32.223Z,89.54
2023-04-15T15:59:33.823Z,89.39
2023-04-15T16:01:35.756Z,89.01
2023-04-15T16:03:37.572Z,89.73
2023-04-15T16:05:39.308Z,90.14
2023-04-15T16:07:40.806Z,91.18
2023-04-15T16:09:42.594Z,90.74
2023-04-15T16:11:45.312Z,91.48
2023-04-15T16:13:46.743Z,90.32
2023-04-15T16:15:50.038Z,89.91
2023-04-15T16:17:52.231Z,89.59
2023-04-15T16:20:00.283Z,90.62
2023-04-15T16:22:02.843Z,90.61
2023-04-15T16:24:04.294Z,90.88
2023-04-15T16:26:06.521Z,90.57
2023-04-15T16:28:18.557Z,90.14
2023-04-15T16:30:27.040Z,90.51
2023-04-15T16:32:28.535Z,90.67
2023-04-15T16:34:30.159Z,91.28
2023-04-15T16:36:32.648Z,91.25
2023-04-15T16:38:34.060Z,91.44
2023-04-15T16:40:37.270Z,91.46
2023-04-15T16:42:38.741Z,90.78
2023-04-15T16:44:40.333Z,92.27
2023-04-15T16:46:41.880Z,92.31
2023-04-15T16:48:43.311Z,91.26
2023-04-15T16:50:44.928Z,91.91
2023-04-15T16:52:46.471Z,92.10
2023-04-15T16:54:48.194Z,92.29
2023-04-15T16:56:49.666Z,91.65
2023-04-15T16:58:51.114Z,91.79
2023-04-15T17:00:53.069Z,91.94
2023-04-15T17:02:57.987Z,91.75
2023-04-15T17:05:00.136Z,92.02
2023-04-15T17:07:01.533Z,92.67
2023-04-15T17:09:03.541Z,92.58
2023-04-15T17:11:05.453Z,91.96
2023-04-15T17:13:07.246Z,92.14
2023-04-15T17:15:09.195Z,92.71
2023-04-15T17:17:10.645Z,92.11
2023-04-15T17:19:12.643Z,91.72
2023-04-15T17:21:16.062Z,92.55
2023-04-15T17:23:17.664Z,92.68
2023-04-15T17:25:19.421Z,91.55
2023-04-15T17:27:21.495Z,92.14
2023-04-15T17:29:23.329Z,91.81
2023-04-15T17:31:25.024Z,93.24
2023-04-15T17:33:59.914Z,93.30
2023-04-15T17:35:48.522Z,93.32
2023-04-15T17:37:50.010Z,94.15
2023-04-15T17:39:52.173Z,92.83
2023-04-15T17:41:53.618Z,93.46
2023-04-15T17:43:55.064Z,93.20
2023-04-15T17:45:58.503Z,92.43
2023-04-15T17:48:03.420Z,93.19
2023-04-15T17:50:05.221Z,92.40
2023-04-15T17:52:06.829Z,93.12
2023-04-15T17:54:08.285Z,92.31
2023-04-15T17:56:09.723Z,92.96
2023-04-15T17:58:11.126Z,93.54
2023-04-15T18:00:13.405Z,92.85
2023-04-15T18:02:15.188Z,92.75
2023-04-15T18:04:16.890Z,94.13
2023-04-15T18:06:21.254Z,94.33
2023-04-15T18:08:22.774Z,93.18
2023-04-15T18:10:24.320Z,93.30
2023-04-15T18:12:25.899Z,93.42
2023-04-15T18:14:34.315Z,93.47
2023-04-15T18:16:36.665Z,92.98
2023-04-15T18:18:38.149Z,93.08
2023-04-15T18:20:39.577Z,93.75
2023-04-15T18:22:42.443Z,93.67
2023-04-15T18:24:43.943Z,93.41
2023-04-15T18:26:48.793Z,93.12
2023-04-15T18:28:50.770Z,92.96
2023-04-15T18:30:52.235Z,93.98
2023-04-15T18:32:53.778Z,94.15
2023-04-15T18:34:56.386Z,93.78
2023-04-15T18:36:58.639Z,95.37
2023-04-15T18:39:00.180Z,94.49
2023-04-15T18:41:01.671Z,94.17
2023-04-15T18:43:03.069Z,94.35
2023-04-15T18:45:04.851Z,93.58
2023-04-15T18:47:06.555Z,94.11
2023-04-15T18:49:08.165Z,93.92
2023-04-15T18:51:10.627Z,93.63
2023-04-15T18:53:12.106Z,94.18
2023-04-15T18:55:13.652Z,94.34
2023-04-15T18:57:20.452Z,94.04
2023-04-15T18:59:29.752Z,93.36
2023-04-15T19:01:32.406Z,94.97
2023-04-15T19:03:34.209Z,94.45
2023-04-15T19:05:36.557Z,94.25
2023-04-15T19:07:38.071Z,95.33
2023-04-15T19:09:41.323Z,94.14
2023-04-15T19:11:44.211Z,95.01
2023-04-15T19:13:46.852Z,93.77
2023-04-15T19:15:48.722Z,94.25
2023-04-15T19:17:50.210Z,94.27
2023-04-15T19:19:51.762Z,94.30
2023-04-15T19:21:53.662Z,93.90
2023-04-15T19:23:56.676Z,94.94
2023-04-15T19:25:58.674Z,94.97
2023-04-15T19:28:00.278Z,94.22
2023-04-15T19:30:03.268Z,94.34
2023-04-15T19:32:05.699Z,94.60
2023-04-15T19:34:07.436Z,94.49
2023-04-15T19:36:08.917Z,95.53
2023-04-15T19:38:10.409Z,94.46
2023-04-15T19:40:11.995Z,94.16
2023-04-15T19:42:13.607Z,94.51
2023-04-15T19:44:15.119Z,94.38
2023-04-15T19:46:16.640Z,94.94
2023-04-15T19:48:18.824Z,95.41
2023-04-15T19:50:24.570Z,95.74
2023-04-15T19:52:26.104Z,95.10
2023-04-15T19:54:27.540Z,95.73
2023-04-15T19:56:29.417Z,95.06
2023-04-15T19:58:32.407Z,95.65
2023-04-15T20:00:33.889Z,95.48
2023-04-15T20:02:35.469Z,94.58
2023-04-15T20:04:36.990Z,94.64
2023-04-15T20:06:38.467Z,95.26
2023-04-15T20:08:40.047Z,94.33
2023-04-15T20:10:41.466Z,95.69
2023-04-15T20:12:49.679Z,94.17
2023-04-15T20:14:54.086Z,94.96
2023-04-15T20:16:55.501Z,95.04
2023-04-15T20:18:56.954Z,95.67
2023-04-15T20:20:58.355Z,94.61
2023-04-15T20:22:59.753Z,96.00
2023-04-15T20:25:02.237Z,95.25
2023-04-15T20:27:03.909Z,95.14
2023-04-15T20:29:05.764Z,95.52
2023-04-15T20:31:07.582Z,95.27
2023-04-15T20:33:09.193Z,96.23
2023-04-15T20:35:10.802Z,95.43
2023-04-15T20:37:12.402Z,96.16
2023-04-15T20:39:13.820Z,95.06
2023-04-15T20:41:15.738Z,95.96
2023-04-15T20:43:17.642Z,94.78
2023-04-15T20:45:19.567Z,96.03
2023-04-15T20:47:21.384Z,95.70
2023-04-15T20:49:23.159Z,95.53
2023-04-15T20:51:25.003Z,95.21
2023-04-15T20:53:45.491Z,95.00
2023-04-15T20:55:46.969Z,93.91
2023-04-15T20:57:48.646Z,95.52
2023-04-15T20:59:50.370Z,95.18
2023-04-15T21:01:51.954Z,95.25
2023-04-15T21:03:53.429Z,94.64
2023-04-15T21:05:54.865Z,94.68
2023-04-15T21:07:56.282Z,94.89
2023-04-15T21:09:57.742Z,94.65
2023-04-15T21:12:01.671Z,95.22
2023-04-15T21:14:07.184Z,95.15
2023-04-15T21:16:08.702Z,95.24
2023-04-15T21:18:10.302Z,95.72
2023-04-15T21:20:12.100Z,94.74
2023-04-15T21:22:13.561Z,95.76
2023-04-15T21:24:14.993Z,95.03
2023-04-15T21:26:16.384Z,95.38
2023-04-15T21:28:17.905Z,94.99
2023-04-15T21:30:19.500Z,94.24
2023-04-15T21:32:20.912Z,93.88
2023-04-15T21:34:22.483Z,94.95
2023-04-15T21:36:23.982Z,95.51
2023-04-15T21:38:25.746Z,95.80
2023-04-15T21:40:27.184Z,95.70
2023-04-15T21:42:29.921Z,95.25
2023-04-15T21:44:31.378Z,95.17
2023-04-15T21:46:35.776Z,94.79
2023-04-15T21:48:37.531Z,94.43
2023-04-15T21:50:39.084Z,95.46
2023-04-15T21:52:40.561Z,95.32
2023-04-15T21:54:41.942Z,95.03
2023-04-15T21:56:43.583Z,95.46
2023-04-15T21:58:44.992Z,95.38
2023-04-15T22:00:46.892Z,96.28
2023-04-15T22:02:48.445Z,96.78
2023-04-15T22:04:50.053Z,95.90
2023-04-15T22:06:52.265Z,95.40
2023-04-15T22:08:57.596Z,95.24
2023-04-15T22:10:59.353Z,95.71
2023-04-15T22:13:02.946Z,95.32
2023-04-15T22:15:04.829Z,95.53
2023-04-15T22:17:06.605Z,95.78
2023-04-15T22:19:08.270Z,96.06
2023-04-15T22:21:10.298Z,95.57
2023-04-15T22:23:11.656Z,96.56
2023-04-15T22:25:14.377Z,95.46
2023-04-15T22:27:15.933Z,95.54
2023-04-15T22:29:17.333Z,96.05
2023-04-15T22:31:18.811Z,95.57
2023-04-15T22:33:20.625Z,95.99
2023-04-15T22:35:22.037Z,97.29
2023-04-15T22:37:24.049Z,96.83
2023-04-15T22:39:25.475Z,98.17
2023-04-15T22:41:27.234Z,97.67
2023-04-15T22:43:28.699Z,97.46
2023-04-15T22:45:30.222Z,96.61
2023-04-15T22:47:31.683Z,96.37
2023-04-15T22:49:34.996Z,96.16
2023-04-15T22:51:37.065Z,97.02
2023-04-15T22:53:38.615Z,98.24
2023-04-15T22:55:40.262Z,97.16
2023-04-15T22:57:41.659Z,97.03
2023-04-15T22:59:43.051Z,97.49
2023-04-15T23:01:44.482Z,97.54
2023-04-15T23:03:55.812Z,98.42
2023-04-15T23:05:58.640Z,96.37
2023-04-15T23:08:00.286Z,97.26
2023-04-15T23:10:01.755Z,97.13
2023-04-15T23:12:03.859Z,97.03
2023-04-15T23:14:05.308Z,97.30
2023-04-15T23:16:07.319Z,96.39
2023-04-15T23:18:08.798Z,96.84
2023-04-15T23:20:11.266Z,96.26
2023-04-15T23:22:12.721Z,95.64
2023-04-15T23:24:14.087Z,96.88
2023-04-15T23:26:15.484Z,96.76
2023-04-15T23:28:16.930Z,96.64
2023-04-15T23:30:18.589Z,95.87
2023-04-15T23:32:20.683Z,96.65
2023-04-15T23:34:22.074Z,97.03
2023-04-15T23:36:23.477Z,96.03
2023-04-15T23:38:24.877Z,95.50
2023-04-15T23:40:26.290Z,96.00
2023-04-15T23:42:27.670Z,95.80
2023-04-15T23:44:29.170Z,96.12
2023-04-15T23:46:30.940Z,96.20
2023-04-15T23:48:32.614Z,96.73
2023-04-15T23:50:34.504Z,96.74
2023-04-15T23:52:36.438Z,96.95
2023-04-15T23:54:37.860Z,97.28
2023-04-15T23:56:39.268Z,96.30
2023-04-15T23:58:40.717Z,96.41
